createdAt,value
2019-06-20T00:01:43.296Z,96018.71
2019-06-20T00:04:14.155Z,96028.02
2019-06-20T00:06:44.602Z,96051.11
2019-06-20T00:09:15.103Z,96054.16
2019-06-20T00:11:45.580Z,96042.90
2019-06-20T00:14:16.026Z,96041.66
2019-06-20T00:16:46.652Z,96051.59
2019-06-20T00:19:17.545Z,96054.41
2019-06-20T00:21:48.150Z,96057.12
2019-06-20T00:24:20.882Z,96048.41
2019-06-20T00:26:51.559Z,96048.80
2019-06-20T00:29:21.968Z,96045.69
2019-06-20T00:31:53.831Z,96052.70
2019-06-20T00:34:24.410Z,96053.08
2019-06-20T00:36:55.158Z,96060.38
2019-06-20T00:39:25.799Z,96063.11
2019-06-20T00:41:56.433Z,96057.00
2019-06-20T00:44:26.990Z,96064.25
2019-06-20T00:46:57.518Z,96080.23
2019-06-20T00:49:27.969Z,96083.92
2019-06-20T00:51:58.425Z,96089.70
2019-06-20T00:54:29.138Z,96095.53
2019-06-20T00:56:59.662Z,96093.15
2019-06-20T00:59:30.082Z,96086.20
2019-06-20T01:02:00.799Z,96086.20
2019-06-20T01:04:33.968Z,96085.41
2019-06-20T01:07:04.630Z,96090.14
2019-06-20T01:09:35.292Z,96092.80
2019-06-20T01:12:05.953Z,96110.91
2019-06-20T01:14:36.719Z,96109.34
2019-06-20T01:17:07.538Z,96122.37
2019-06-20T01:19:38.130Z,96126.96
2019-06-20T01:22:08.712Z,96134.74
2019-06-20T01:24:39.418Z,96140.91
2019-06-20T01:27:10.084Z,96150.55
2019-06-20T01:29:40.711Z,96154.30
2019-06-20T01:32:11.260Z,96170.28
2019-06-20T01:34:41.730Z,96173.75
2019-06-20T01:37:12.222Z,96174.80
2019-06-20T01:39:42.637Z,96186.27
2019-06-20T01:42:13.074Z,96193.80
2019-06-20T01:44:43.873Z,96213.42
2019-06-20T01:47:14.318Z,96218.75
2019-06-20T01:49:45.321Z,96218.48
2019-06-20T01:52:15.671Z,96232.32
2019-06-20T01:54:46.137Z,96237.94
2019-06-20T01:57:16.577Z,96239.22
2019-06-20T01:59:47.295Z,96236.64
2019-06-20T02:02:17.754Z,96245.48
2019-06-20T02:04:48.097Z,96243.44
2019-06-20T02:07:18.521Z,96241.39
2019-06-20T02:09:49.011Z,96239.16
2019-06-20T02:12:19.392Z,96239.63
2019-06-20T02:14:49.819Z,96241.72
2019-06-20T02:17:20.299Z,96250.45
2019-06-20T02:19:50.835Z,96243.52
2019-06-20T02:22:21.281Z,96239.48
2019-06-20T02:24:51.690Z,96230.00
2019-06-20T02:27:23.117Z,96237.45
2019-06-20T02:29:53.557Z,96228.59
2019-06-20T02:32:23.989Z,96220.35
2019-06-20T02:34:54.428Z,96224.86
2019-06-20T02:37:24.921Z,96229.13
2019-06-20T02:39:55.389Z,96233.41
2019-06-20T02:42:25.747Z,96232.36
2019-06-20T02:44:56.238Z,96236.30
2019-06-20T02:47:26.716Z,96229.13
2019-06-20T02:49:57.119Z,96229.70
2019-06-20T02:52:27.621Z,96228.09
2019-06-20T02:54:57.932Z,96222.30
2019-06-20T02:57:28.411Z,96205.71
2019-06-20T02:59:58.960Z,96211.03
2019-06-20T03:02:29.375Z,96190.23
2019-06-20T03:04:59.781Z,96185.66
2019-06-20T03:07:30.211Z,96173.65
2019-06-20T03:10:00.669Z,96172.04
2019-06-20T03:12:31.137Z,96154.56
2019-06-20T03:15:01.880Z,96152.89
2019-06-20T03:17:32.204Z,96136.43
2019-06-20T03:20:02.722Z,96132.73
2019-06-20T03:22:33.068Z,96129.02
2019-06-20T03:25:03.877Z,96124.00
2019-06-20T03:27:34.389Z,96115.78
2019-06-20T03:30:05.300Z,96117.40
2019-06-20T03:32:35.761Z,96128.84
2019-06-20T03:35:06.243Z,96125.13
2019-06-20T03:37:36.719Z,96125.61
2019-06-20T03:40:07.397Z,96140.77
2019-06-20T03:42:37.872Z,96151.39
2019-06-20T03:45:08.552Z,96160.45
2019-06-20T03:47:39.014Z,96163.88
2019-06-20T03:50:10.523Z,96176.40
2019-06-20T03:52:40.992Z,96177.98
2019-06-20T03:55:13.207Z,96182.61
2019-06-20T03:57:43.698Z,96187.98
2019-06-20T04:00:14.361Z,96189.42
2019-06-20T04:02:44.730Z,96192.95
2019-06-20T04:05:16.251Z,96199.88
2019-06-20T04:07:46.756Z,96193.46
2019-06-20T04:10:17.344Z,96197.80
2019-06-20T04:12:47.758Z,96199.41
2019-06-20T04:15:19.643Z,96198.42
2019-06-20T04:17:50.326Z,96202.42
2019-06-20T04:20:20.702Z,96217.09
2019-06-20T04:22:51.100Z,96213.95
2019-06-20T04:25:21.649Z,96214.02
2019-06-20T04:27:52.078Z,96222.23
2019-06-20T04:30:22.616Z,96215.55
2019-06-20T04:32:53.033Z,96216.62
2019-06-20T04:35:23.496Z,96217.91
2019-06-20T04:37:53.909Z,96216.62
2019-06-20T04:40:24.384Z,96217.72
2019-06-20T04:42:54.906Z,96223.91
2019-06-20T04:45:47.057Z,96219.16
2019-06-20T04:48:17.542Z,96219.16
2019-06-20T04:50:47.877Z,96223.91
2019-06-20T04:53:18.311Z,96223.67
2019-06-20T04:55:48.672Z,96225.20
2019-06-20T04:58:19.151Z,96222.86
2019-06-20T05:00:49.508Z,96224.33
2019-06-20T05:03:19.955Z,96232.41
2019-06-20T05:05:50.427Z,96222.95
2019-06-20T05:08:20.963Z,96224.67
2019-06-20T05:10:51.367Z,96234.93
2019-06-20T05:13:21.783Z,96240.34
2019-06-20T05:15:53.398Z,96255.33
2019-06-20T05:18:24.137Z,96256.45
2019-06-20T05:20:54.668Z,96264.27
2019-06-20T05:23:25.204Z,96276.73
2019-06-20T05:25:55.687Z,96275.91
2019-06-20T05:28:26.156Z,96280.44
2019-06-20T05:30:56.719Z,96283.86
2019-06-20T05:33:27.188Z,96273.82
2019-06-20T05:35:57.637Z,96278.20
2019-06-20T05:38:28.141Z,96288.23
2019-06-20T05:40:58.634Z,96288.80
2019-06-20T05:43:29.100Z,96285.57
2019-06-20T05:46:08.954Z,96294.08
2019-06-20T05:48:31.778Z,96292.41
2019-06-20T05:51:02.271Z,96296.92
2019-06-20T05:53:32.645Z,96303.30
2019-06-20T05:56:03.031Z,96302.06
2019-06-20T05:58:33.515Z,96301.12
2019-06-20T06:01:03.993Z,96301.78
2019-06-20T06:03:34.500Z,96302.39
2019-06-20T06:06:05.030Z,96307.20
2019-06-20T06:08:35.363Z,96301.88
2019-06-20T06:11:05.905Z,96304.53
2019-06-20T06:13:36.401Z,96314.30
2019-06-20T06:16:06.910Z,96319.92
2019-06-20T06:18:37.272Z,96318.70
2019-06-20T06:21:07.881Z,96322.02
2019-06-20T06:23:38.281Z,96309.84
2019-06-20T06:26:08.728Z,96314.16
2019-06-20T06:28:39.146Z,96314.36
2019-06-20T06:31:09.565Z,96311.42
2019-06-20T06:33:40.040Z,96304.27
2019-06-20T06:36:10.465Z,96305.09
2019-06-20T06:38:40.937Z,96328.56
2019-06-20T06:41:11.391Z,96325.14
2019-06-20T06:43:42.313Z,96336.05
2019-06-20T06:46:12.795Z,96344.59
2019-06-20T06:48:43.272Z,96348.28
2019-06-20T06:51:13.792Z,96347.00
2019-06-20T06:53:44.256Z,96351.52
2019-06-20T06:56:14.660Z,96358.49
2019-06-20T06:58:45.067Z,96346.80
2019-06-20T07:01:15.520Z,96346.62
2019-06-20T07:03:45.937Z,96347.70
2019-06-20T07:06:16.353Z,96341.11
2019-06-20T07:08:46.827Z,96339.58
2019-06-20T07:11:17.216Z,96341.87
2019-06-20T07:13:47.590Z,96339.22
2019-06-20T07:16:18.090Z,96345.67
2019-06-20T07:18:48.576Z,96341.61
2019-06-20T07:21:19.125Z,96334.88
2019-06-20T07:23:49.423Z,96331.69
2019-06-20T07:26:19.761Z,96331.16
2019-06-20T07:28:51.585Z,96340.71
2019-06-20T07:31:22.342Z,96339.30
2019-06-20T07:33:52.771Z,96338.94
2019-06-20T07:36:23.267Z,96343.00
2019-06-20T07:38:53.660Z,96339.98
2019-06-20T07:41:24.268Z,96338.75
2019-06-20T07:43:54.836Z,96337.36
2019-06-20T07:46:25.294Z,96336.89
2019-06-20T07:48:55.780Z,96343.40
2019-06-20T07:51:26.257Z,96335.45
2019-06-20T07:53:56.584Z,96344.59
2019-06-20T07:56:27.167Z,96348.58
2019-06-20T07:58:57.651Z,96342.94
2019-06-20T08:01:28.091Z,96344.34
2019-06-20T08:03:59.058Z,96356.36
2019-06-20T08:06:29.388Z,96349.82
2019-06-20T08:08:59.751Z,96352.73
2019-06-20T08:11:30.355Z,96355.94
2019-06-20T08:14:00.758Z,96355.94
2019-06-20T08:16:31.231Z,96346.88
2019-06-20T08:19:01.645Z,96350.73
2019-06-20T08:21:32.080Z,96350.09
2019-06-20T08:24:02.555Z,96340.84
2019-06-20T08:26:32.968Z,96337.80
2019-06-20T08:29:14.942Z,96325.00
2019-06-20T08:31:35.644Z,96317.83
2019-06-20T08:34:06.589Z,96317.86
2019-06-20T08:36:37.111Z,96302.84
2019-06-20T08:39:10.452Z,96297.25
2019-06-20T08:41:41.015Z,96289.89
2019-06-20T08:44:11.385Z,96292.61
2019-06-20T08:46:41.885Z,96303.09
2019-06-20T08:49:12.239Z,96305.00
2019-06-20T08:51:42.749Z,96307.92
2019-06-20T08:54:13.071Z,96303.38
2019-06-20T08:56:43.553Z,96283.28
2019-06-20T08:59:23.918Z,96280.59
2019-06-20T09:01:46.220Z,96276.80
2019-06-20T09:04:16.623Z,96280.73
2019-06-20T09:06:50.044Z,96282.28
2019-06-20T09:09:19.418Z,96292.64
2019-06-20T09:11:49.836Z,96296.63
2019-06-20T09:14:20.300Z,96306.17
2019-06-20T09:16:50.686Z,96309.38
2019-06-20T09:19:21.158Z,96320.06
2019-06-20T09:21:52.644Z,96312.31
2019-06-20T09:24:25.531Z,96316.34
2019-06-20T09:26:57.174Z,96320.14
2019-06-20T09:29:40.855Z,96321.73
2019-06-20T09:32:00.602Z,96323.98
2019-06-20T09:34:30.936Z,96322.98
2019-06-20T09:37:01.468Z,96331.89
2019-06-20T09:39:31.961Z,96333.81
2019-06-20T09:42:03.439Z,96334.16
2019-06-20T09:44:33.843Z,96329.02
2019-06-20T09:47:04.536Z,96335.35
2019-06-20T09:49:35.020Z,96346.25
2019-06-20T09:52:05.545Z,96344.80
2019-06-20T09:54:36.002Z,96348.37
2019-06-20T09:57:06.726Z,96344.03
2019-06-20T09:59:37.152Z,96352.56
2019-06-20T10:02:07.727Z,96354.17
2019-06-20T10:04:38.204Z,96355.03
2019-06-20T10:07:08.735Z,96352.51
2019-06-20T10:09:39.161Z,96361.55
2019-06-20T10:12:09.574Z,96363.78
2019-06-20T10:14:40.047Z,96350.41
2019-06-20T10:17:10.520Z,96359.59
2019-06-20T10:19:41.042Z,96364.55
2019-06-20T10:22:11.505Z,96362.44
2019-06-20T10:24:41.959Z,96365.96
2019-06-20T10:27:12.470Z,96364.69
2019-06-20T10:29:42.950Z,96361.50
2019-06-20T10:32:13.389Z,96362.48
2019-06-20T10:34:45.122Z,96360.45
2019-06-20T10:37:17.052Z,96352.19
2019-06-20T10:39:47.808Z,96349.60
2019-06-20T10:42:18.125Z,96360.00
2019-06-20T10:44:49.702Z,96351.20
2019-06-20T10:47:31.863Z,96354.98
2019-06-20T10:49:52.323Z,96364.67
2019-06-20T10:52:22.771Z,96353.91
2019-06-20T10:54:53.273Z,96359.44
2019-06-20T10:57:23.695Z,96358.25
2019-06-20T10:59:54.150Z,96364.55
2019-06-20T11:02:24.605Z,96358.98
2019-06-20T11:04:55.207Z,96361.44
2019-06-20T11:07:25.661Z,96359.83
2019-06-20T11:09:56.374Z,96353.96
2019-06-20T11:12:26.766Z,96347.56
2019-06-20T11:14:57.160Z,96354.05
2019-06-20T11:17:27.513Z,96355.17
2019-06-20T11:19:57.994Z,96354.12
2019-06-20T11:22:28.468Z,96359.48
2019-06-20T11:24:58.945Z,96348.48
2019-06-20T11:27:29.417Z,96345.83
2019-06-20T11:29:59.858Z,96333.27
2019-06-20T11:32:30.383Z,96328.52
2019-06-20T11:35:00.856Z,96324.74
2019-06-20T11:37:31.516Z,96309.79
2019-06-20T11:40:01.962Z,96314.59
2019-06-20T11:42:32.572Z,96312.98
2019-06-20T11:45:03.083Z,96315.11
2019-06-20T11:47:34.979Z,96313.50
2019-06-20T11:50:06.376Z,96307.02
2019-06-20T11:52:41.034Z,96312.05
2019-06-20T11:55:09.629Z,96303.65
2019-06-20T11:57:40.158Z,96290.98
2019-06-20T12:00:11.483Z,96291.31
2019-06-20T12:02:42.748Z,96287.91
2019-06-20T12:05:14.276Z,96284.23
2019-06-20T12:07:45.587Z,96271.92
2019-06-20T12:10:17.260Z,96276.27
2019-06-20T12:12:49.193Z,96273.23
2019-06-20T12:15:21.182Z,96266.42
2019-06-20T12:17:51.634Z,96262.84
2019-06-20T12:20:22.879Z,96263.17
2019-06-20T12:22:53.426Z,96257.95
2019-06-20T12:25:24.246Z,96249.53
2019-06-20T12:27:54.684Z,96242.27
2019-06-20T12:30:26.575Z,96248.37
2019-06-20T12:32:57.035Z,96248.45
2019-06-20T12:35:28.017Z,96247.23
2019-06-20T12:37:58.505Z,96239.42
2019-06-20T12:40:29.165Z,96228.75
2019-06-20T12:42:59.752Z,96228.58
2019-06-20T12:45:30.240Z,96230.70
2019-06-20T12:48:01.527Z,96227.78
2019-06-20T12:50:31.980Z,96229.35
2019-06-20T12:53:02.546Z,96224.19
2019-06-20T12:55:33.028Z,96226.50
2019-06-20T12:58:03.558Z,96224.27
2019-06-20T13:00:37.640Z,96226.39
2019-06-20T13:03:08.851Z,96227.11
2019-06-20T13:05:40.138Z,96223.49
2019-06-20T13:08:13.647Z,96217.45
2019-06-20T13:10:44.222Z,96220.49
2019-06-20T13:13:15.632Z,96223.73
2019-06-20T13:15:46.940Z,96214.20
2019-06-20T13:18:17.535Z,96223.41
2019-06-20T13:20:48.548Z,96221.64
2019-06-20T13:23:18.986Z,96224.49
2019-06-20T13:25:49.431Z,96219.95
2019-06-20T13:28:19.871Z,96214.86
2019-06-20T13:30:52.195Z,96212.50
2019-06-20T13:33:22.871Z,96222.98
2019-06-20T13:35:53.311Z,96212.29
2019-06-20T13:38:23.959Z,96207.26
2019-06-20T13:40:54.360Z,96199.77
2019-06-20T13:43:24.883Z,96196.79
2019-06-20T13:45:55.355Z,96183.46
2019-06-20T13:48:25.975Z,96183.85
2019-06-20T13:50:56.487Z,96189.55
2019-06-20T13:53:26.985Z,96186.28
2019-06-20T13:55:57.489Z,96174.80
2019-06-20T13:58:27.952Z,96184.81
2019-06-20T14:00:58.363Z,96183.08
2019-06-20T14:03:28.767Z,96186.52
2019-06-20T14:05:59.241Z,96194.19
2019-06-20T14:08:29.738Z,96188.80
2019-06-20T14:11:00.087Z,96184.63
2019-06-20T14:13:30.494Z,96177.50
2019-06-20T14:16:00.992Z,96195.05
2019-06-20T14:18:31.447Z,96212.84
2019-06-20T14:21:02.119Z,96223.67
2019-06-20T14:23:32.816Z,96220.54
2019-06-20T14:26:03.249Z,96213.66
2019-06-20T14:28:33.682Z,96202.30
2019-06-20T14:31:04.138Z,96207.45
2019-06-20T14:33:34.643Z,96198.37
2019-06-20T14:36:05.142Z,96204.78
2019-06-20T14:38:35.611Z,96204.27
2019-06-20T14:41:06.167Z,96202.45
2019-06-20T14:43:36.667Z,96214.51
2019-06-20T14:46:07.137Z,96214.52
2019-06-20T14:48:37.547Z,96224.72
2019-06-20T14:51:07.925Z,96234.37
2019-06-20T14:53:38.367Z,96242.38
2019-06-20T14:56:08.827Z,96243.45
2019-06-20T14:58:39.409Z,96263.22
2019-06-20T15:01:09.830Z,96284.84
2019-06-20T15:03:40.191Z,96305.40
2019-06-20T15:06:10.621Z,96328.02
2019-06-20T15:08:40.967Z,96363.13
2019-06-20T15:11:12.489Z,96348.47
2019-06-20T15:13:43.052Z,96360.36
2019-06-20T15:16:13.549Z,96372.48
2019-06-20T15:18:46.501Z,96370.74
2019-06-20T15:21:16.133Z,96376.38
2019-06-20T15:23:48.850Z,96374.77
2019-06-20T15:26:18.849Z,96370.60
2019-06-20T15:28:49.764Z,96370.86
2019-06-20T15:31:21.478Z,96381.23
2019-06-20T15:33:53.282Z,96387.23
2019-06-20T15:36:23.910Z,96390.83
2019-06-20T15:38:55.069Z,96393.11
2019-06-20T15:41:25.719Z,96400.84
2019-06-20T15:43:56.253Z,96407.44
2019-06-20T15:46:30.424Z,96401.89
2019-06-20T15:49:00.155Z,96395.29
2019-06-20T15:51:31.171Z,96394.84
2019-06-20T15:54:01.545Z,96377.75
2019-06-20T15:56:31.942Z,96366.00
2019-06-20T15:59:02.508Z,96364.39
2019-06-20T16:01:32.882Z,96357.70
2019-06-20T16:04:03.368Z,96358.63
2019-06-20T16:06:33.874Z,96342.13
2019-06-20T16:09:08.376Z,96350.31
2019-06-20T16:11:37.312Z,96365.08
2019-06-20T16:14:07.794Z,96355.61
2019-06-20T16:16:38.269Z,96357.26
2019-06-20T16:19:08.735Z,96365.78
2019-06-20T16:21:39.244Z,96375.83
2019-06-20T16:24:12.598Z,96387.02
2019-06-20T16:26:41.932Z,96413.08
2019-06-20T16:29:12.324Z,96405.80
2019-06-20T16:31:42.751Z,96404.42
2019-06-20T16:34:13.240Z,96411.09
2019-06-20T16:36:43.707Z,96408.90
2019-06-20T16:39:14.383Z,96394.45
2019-06-20T16:41:44.950Z,96395.04
2019-06-20T16:44:15.456Z,96383.03
2019-06-20T16:46:46.148Z,96379.71
2019-06-20T16:49:16.683Z,96372.63
2019-06-20T16:51:47.163Z,96389.91
2019-06-20T16:54:17.745Z,96390.34
2019-06-20T16:56:48.269Z,96402.90
2019-06-20T16:59:18.760Z,96420.83
2019-06-20T17:01:49.249Z,96420.41
2019-06-20T17:04:19.867Z,96419.45
2019-06-20T17:06:50.315Z,96437.30
2019-06-20T17:09:20.805Z,96444.34
2019-06-20T17:11:51.223Z,96435.86
2019-06-20T17:14:21.720Z,96442.14
2019-06-20T17:16:52.144Z,96448.59
2019-06-20T17:19:22.529Z,96449.58
2019-06-20T17:21:53.186Z,96449.08
2019-06-20T17:24:23.532Z,96440.09
2019-06-20T17:26:53.961Z,96434.98
2019-06-20T17:29:24.486Z,96444.29
2019-06-20T17:31:57.377Z,96443.04
2019-06-20T17:34:27.132Z,96442.95
2019-06-20T17:36:57.615Z,96440.87
2019-06-20T17:39:28.100Z,96442.81
2019-06-20T17:41:58.855Z,96451.50
2019-06-20T17:44:29.528Z,96442.14
2019-06-20T17:47:00.042Z,96456.00
2019-06-20T17:49:30.513Z,96469.73
2019-06-20T17:52:01.055Z,96476.18
2019-06-20T17:54:31.628Z,96477.31
2019-06-20T17:57:02.195Z,96467.62
2019-06-20T17:59:32.607Z,96469.38
2019-06-20T18:02:03.110Z,96464.78
2019-06-20T18:04:33.497Z,96468.97
2019-06-20T18:07:04.078Z,96463.84
2019-06-20T18:09:34.653Z,96466.73
2019-06-20T18:12:05.133Z,96454.27
2019-06-20T18:14:35.535Z,96461.23
2019-06-20T18:17:06.008Z,96458.94
2019-06-20T18:19:36.451Z,96454.89
2019-06-20T18:22:07.123Z,96456.18
2019-06-20T18:24:37.617Z,96453.88
2019-06-20T18:27:08.172Z,96458.50
2019-06-20T18:29:38.652Z,96463.81
2019-06-20T18:32:09.097Z,96462.19
2019-06-20T18:34:39.576Z,96454.61
2019-06-20T18:37:10.130Z,96450.68
2019-06-20T18:39:40.695Z,96448.73
2019-06-20T18:42:11.142Z,96442.37
2019-06-20T18:44:41.631Z,96442.04
2019-06-20T18:47:12.071Z,96446.98
2019-06-20T18:49:42.536Z,96440.53
2019-06-20T18:52:12.960Z,96444.33
2019-06-20T18:54:43.357Z,96439.69
2019-06-20T18:57:13.827Z,96441.98
2019-06-20T18:59:47.307Z,96440.02
2019-06-20T19:02:17.754Z,96441.63
2019-06-20T19:04:50.876Z,96440.45
2019-06-20T19:07:20.479Z,96444.27
2019-06-20T19:09:51.333Z,96443.30
2019-06-20T19:12:24.718Z,96446.86
2019-06-20T19:14:55.173Z,96439.94
2019-06-20T19:17:25.634Z,96433.48
2019-06-20T19:19:56.135Z,96437.63
2019-06-20T19:22:26.654Z,96436.92
2019-06-20T19:25:03.810Z,96442.44
2019-06-20T19:27:45.459Z,96449.57
2019-06-20T19:30:12.726Z,96450.94
2019-06-20T19:32:48.308Z,96449.31
2019-06-20T19:35:18.781Z,96443.43
2019-06-20T19:37:49.276Z,96451.84
2019-06-20T19:40:20.778Z,96451.03
2019-06-20T19:42:51.239Z,96445.95
2019-06-20T19:45:23.096Z,96450.30
2019-06-20T19:47:53.576Z,96462.95
2019-06-20T19:50:24.083Z,96462.58
2019-06-20T19:52:54.566Z,96460.81
2019-06-20T19:55:25.321Z,96462.19
2019-06-20T19:57:55.722Z,96470.73
2019-06-20T20:00:26.231Z,96465.06
2019-06-20T20:02:56.804Z,96465.06
2019-06-20T20:05:27.989Z,96463.47
2019-06-20T20:07:58.640Z,96468.16
2019-06-20T20:10:54.453Z,96476.54
2019-06-20T20:13:24.982Z,96477.00
2019-06-20T20:15:55.443Z,96479.34
2019-06-20T20:18:25.865Z,96482.30
2019-06-20T20:20:56.262Z,96484.28
2019-06-20T20:23:26.694Z,96487.59
2019-06-20T20:25:57.272Z,96483.33
2019-06-20T20:28:27.763Z,96488.62
2019-06-20T20:30:58.178Z,96496.16
2019-06-20T20:33:28.650Z,96498.60
2019-06-20T20:36:01.882Z,96501.84
2019-06-20T20:38:31.582Z,96502.42
2019-06-20T20:41:02.076Z,96510.20
2019-06-20T20:43:32.536Z,96514.12
2019-06-20T20:46:02.902Z,96519.17
2019-06-20T20:48:33.945Z,96522.20
2019-06-20T20:51:04.438Z,96527.44
2019-06-20T20:53:34.963Z,96518.47
2019-06-20T20:56:05.458Z,96525.75
2019-06-20T20:58:35.791Z,96524.94
2019-06-20T21:01:16.497Z,96532.20
2019-06-20T21:03:46.955Z,96531.19
2019-06-20T21:06:17.348Z,96533.02
2019-06-20T21:08:47.743Z,96539.94
2019-06-20T21:11:18.208Z,96553.77
2019-06-20T21:13:48.673Z,96557.44
2019-06-20T21:16:19.122Z,96564.99
2019-06-20T21:18:49.538Z,96563.61
2019-06-20T21:21:20.083Z,96558.73
2019-06-20T21:23:50.532Z,96567.70
2019-06-20T21:26:20.971Z,96568.16
2019-06-20T21:28:51.459Z,96570.34
2019-06-20T21:31:22.748Z,96578.29
2019-06-20T21:33:54.449Z,96582.56
2019-06-20T21:36:25.350Z,96579.91
2019-06-20T21:38:55.780Z,96581.54
2019-06-20T21:41:26.352Z,96581.54
2019-06-20T21:43:56.942Z,96580.06
2019-06-20T21:46:27.403Z,96581.48
2019-06-20T21:48:57.842Z,96575.97
2019-06-20T21:51:28.325Z,96587.16
2019-06-20T21:53:58.815Z,96572.73
2019-06-20T21:56:29.257Z,96577.20
2019-06-20T21:58:59.771Z,96571.70
2019-06-20T22:01:30.283Z,96571.70
2019-06-20T22:04:00.757Z,96571.70
2019-06-20T22:06:31.246Z,96570.89
2019-06-20T22:09:01.681Z,96573.69
2019-06-20T22:11:32.170Z,96567.16
2019-06-20T22:14:02.640Z,96572.52
2019-06-20T22:16:33.138Z,96568.45
2019-06-20T22:19:03.749Z,96568.63
2019-06-20T22:21:34.389Z,96581.41
2019-06-20T22:24:05.014Z,96574.50
2019-06-20T22:26:37.055Z,96571.28
2019-06-20T22:29:07.585Z,96572.30
2019-06-20T22:31:38.047Z,96576.57
2019-06-20T22:34:08.503Z,96575.52
2019-06-20T22:36:40.474Z,96583.46
2019-06-20T22:39:11.448Z,96579.37
2019-06-20T22:41:41.954Z,96567.16
2019-06-20T22:44:12.319Z,96570.77
2019-06-20T22:46:42.660Z,96564.66
2019-06-20T22:49:13.075Z,96564.66
2019-06-20T22:51:43.537Z,96568.63
2019-06-20T22:54:13.987Z,96566.67
2019-06-20T22:56:44.430Z,96562.47
2019-06-20T22:59:14.980Z,96553.00
2019-06-20T23:01:45.484Z,96544.83
2019-06-20T23:04:15.932Z,96554.23
2019-06-20T23:06:56.008Z,96553.79
2019-06-20T23:09:18.581Z,96557.03
2019-06-20T23:11:49.967Z,96553.06
2019-06-20T23:14:20.484Z,96556.72
2019-06-20T23:16:50.940Z,96567.72
2019-06-20T23:19:21.431Z,96568.73
2019-06-20T23:21:51.851Z,96564.05
2019-06-20T23:24:22.327Z,96570.97
2019-06-20T23:26:52.687Z,96569.34
2019-06-20T23:29:23.105Z,96571.33
2019-06-20T23:31:54.616Z,96569.70
2019-06-20T23:34:25.757Z,96570.52
2019-06-20T23:37:11.421Z,96569.66
2019-06-20T23:39:28.596Z,96571.73
2019-06-20T23:41:58.908Z,96567.25
2019-06-20T23:44:29.405Z,96570.71
2019-06-20T23:46:59.847Z,96575.81
2019-06-20T23:49:30.376Z,96569.66
2019-06-20T23:52:11.751Z,96571.28
2019-06-20T23:54:42.209Z,96568.06
2019-06-20T23:57:12.709Z,96566.86
2019-06-20T23:59:43.514Z,96568.16
